Latest Weather Observations for Gayndah

IDQ60801

Issued at 7:02 pm EST Saturday 16 February 2019 (issued every 10 minutes, with the page automatically refreshed every 10 minutes)

About weather observations | Map of weather stations | Latest weather observations for QLD | Other Formats
Station Details ID: 039066 Name: GAYNDAH AIRPORT Lat: -25.62 Lon: 151.62 Height: 110.9 m
Data from the previous 72 hours. | See also: Recent months at Gayndah
Date/Time
EST
Temp
°C
App
Temp
°C
Dew
Point
°C
Rel
Hum
%
Delta-T
°C
Wind Press
QNH
hPa
Press
MSL
hPa
Rain since
9am
mm
Dir  Spd
km/h
Gust
km/h
Spd
kts
Gust
kts
16/07:00pm 27.8 23.8 11.8 37 9.3 E 24 37 13 20 1013.0 1012.4 0.0
16/06:30pm 29.1 26.3 12.5 36 9.8 E 19 26 10 14 1012.2 1011.6 0.0
16/06:00pm 30.2 27.2 12.6 34 10.4 E 20 30 11 16 1011.8 1011.2 0.0
16/05:30pm 31.5 29.4 12.3 31 11.4 E 15 22 8 12 1011.4 1010.8 0.0
16/05:00pm 32.6 29.7 12.3 29 12.1 E 19 26 10 14 1011.2 1010.6 0.0
16/04:30pm 32.6 29.9 12.8 30 11.9 E 19 35 10 19 1011.3 1010.7 0.0
16/04:00pm 32.8 30.5 11.9 28 12.4 E 15 24 8 13 1011.4 1010.8 0.0
16/03:30pm 31.6 29.5 12.4 31 11.4 ESE 15 30 8 16 1011.8 1011.2 0.0
16/03:00pm 31.6 30.7 13.8 34 10.8 SE 11 24 6 13 1012.1 1011.5 0.0
16/02:30pm 31.8 30.2 14.0 34 10.8 SSE 15 30 8 16 1012.6 1012.0 0.0
16/02:00pm 32.4 32.2 15.8 36 10.4 E 11 19 6 10 1013.3 1012.7 0.0
16/01:30pm 30.7 28.2 13.5 35 10.4 E 19 24 10 13 1013.8 1013.2 0.0
16/01:00pm 32.2 30.1 14.8 35 10.7 E 19 32 10 17 1014.3 1013.6 0.0
16/12:30pm 31.0 29.3 14.6 37 10.0 ESE 17 30 9 16 1014.7 1014.0 0.0
16/12:00pm 30.9 30.3 14.5 37 10.0 E 11 20 6 11 1015.2 1014.5 0.0
16/11:30am 29.7 28.9 15.0 40 9.0 SE 13 24 7 13 1015.6 1014.9 0.0
16/11:00am 29.3 27.7 15.1 42 8.7 E 17 22 9 12 1016.1 1015.4 0.0
16/10:30am 29.4 28.4 15.5 43 8.6 E 15 26 8 14 1016.6 1015.9 0.0
16/10:00am 27.9 25.7 14.9 45 7.9 ESE 20 33 11 18 1016.9 1016.2 0.0
16/09:30am 27.8 25.7 14.8 45 7.9 ESE 19 33 10 18 1016.8 1016.1 0.0
16/09:00am 27.5 25.4 14.8 45 7.7 SE 19 26 10 14 1016.8 1016.1 -
16/08:30am 27.2 26.3 15.9 50 7.0 ESE 15 20 8 11 1016.9 1016.2 -
16/08:00am 25.5 24.2 14.9 52 6.4 SE 15 22 8 12 1016.8 1016.1 -
16/07:30am 24.2 24.5 15.1 56 5.5 SSE 7 13 4 7 1016.7 1016.0 -
16/07:00am 22.4 23.6 16.0 67 3.9 SSW 4 7 2 4 1016.5 1015.8 -
16/06:30am 20.6 21.4 15.8 74 2.9 SW 6 7 3 4 1016.4 1015.7 -
16/06:00am 19.2 19.9 15.5 79 2.2 WSW 6 7 3 4 1016.1 1015.4 -
16/05:30am 19.1 19.5 15.2 78 2.3 WSW 7 9 4 5 1016.0 1015.3 -
16/05:00am 19.9 20.6 15.5 76 2.6 SW 6 7 3 4 1015.9 1015.2 -
16/04:30am 19.8 20.4 15.2 75 2.7 SW 6 7 3 4 1015.7 1015.0 -
16/04:00am 20.3 21.0 15.5 74 2.9 SW 6 7 3 4 1015.5 1014.8 -
16/03:30am - - - - - SSW 6 7 3 4 - - -
16/03:00am 20.9 21.5 15.4 71 3.3 SW 6 6 3 3 1015.3 1014.6 0.0
16/02:30am 21.3 22.0 15.6 70 3.4 SSW 6 7 3 4 1015.4 1014.7 0.0
16/02:00am 21.8 22.5 15.6 68 3.7 S 6 9 3 5 1015.6 1014.9 0.0
16/01:30am 22.5 23.6 15.6 65 4.2 SE 4 6 2 3 1015.8 1015.1 0.0
16/01:00am 22.9 23.5 15.7 64 4.3 ESE 7 13 4 7 1016.2 1015.5 0.0
16/12:30am 23.4 23.3 16.0 63 4.5 ESE 11 17 6 9 1016.3 1015.6 0.0
16/12:00am 23.5 23.2 16.5 65 4.3 ESE 13 19 7 10 1016.6 1015.9 0.0
 
Date/Time
EST
Temp
°C
App
Temp
°C
Dew
Point
°C
Rel
Hum
%
Delta-T
°C
Wind Press
QNH
hPa
Press
MSL
hPa
Rain since
9am
mm
Dir  Spd
km/h
Gust
km/h
Spd
kts
Gust
kts
15/11:30pm 23.5 24.1 16.8 66 4.1 ESE 9 20 5 11 1016.8 1016.1 0.0
15/11:00pm 23.8 24.9 17.1 66 4.1 ESE 7 13 4 7 1017.0 1016.3 0.0
15/10:30pm 23.8 24.9 17.1 66 4.2 ESE 7 11 4 6 1017.1 1016.4 0.0
15/10:00pm 24.3 24.6 17.1 64 4.5 E 11 13 6 7 1017.1 1016.4 0.0
15/09:30pm 24.7 24.7 17.2 63 4.7 E 13 20 7 11 1017.0 1016.3 0.0
15/09:00pm 25.1 23.7 17.1 61 5.0 E 20 28 11 15 1016.9 1016.2 0.0
15/08:30pm 25.6 24.6 17.5 61 5.1 E 19 26 10 14 1016.5 1015.8 0.0
15/08:00pm 26.1 24.9 17.5 59 5.4 E 20 30 11 16 1016.2 1015.5 0.0
15/07:30pm 26.8 25.1 17.3 56 6.0 E 22 33 12 18 1015.6 1014.9 0.0
15/07:00pm 27.6 26.3 17.2 53 6.5 E 20 28 11 15 1015.0 1014.3 0.0
15/06:30pm 28.6 27.3 16.8 48 7.4 ESE 19 26 10 14 1014.5 1013.8 0.0
15/06:00pm 29.6 27.5 16.1 44 8.4 E 22 33 12 18 1014.0 1013.4 0.0
15/05:30pm 30.8 28.1 15.6 39 9.4 E 24 35 13 19 1013.7 1013.1 0.0
15/05:00pm 31.4 28.0 15.8 39 9.7 ENE 28 35 15 19 1013.3 1012.7 0.0
15/04:30pm 32.2 29.5 15.7 37 10.3 E 24 35 13 19 1013.2 1012.6 0.0
15/04:00pm 32.4 30.4 15.4 36 10.6 ESE 20 35 11 19 1013.1 1012.5 0.0
15/03:30pm 33.2 31.4 17.0 38 10.4 E 22 33 12 18 1013.1 1012.5 0.0
15/03:00pm 33.1 31.5 16.5 37 10.5 E 20 30 11 16 1013.2 1012.6 0.0
15/02:30pm 33.9 32.6 16.7 35 11.0 ESE 19 26 10 14 1013.5 1012.9 0.0
15/02:00pm 32.5 31.8 15.5 36 10.6 SE 13 22 7 12 1013.9 1013.3 0.0
15/01:30pm 33.7 32.7 16.6 36 10.9 E 17 33 9 18 1014.1 1013.5 0.0
15/01:00pm 31.9 30.2 15.8 38 10.1 E 19 28 10 15 1014.8 1014.1 0.0
15/12:30pm 31.4 31.0 16.2 40 9.6 ESE 13 28 7 15 1015.1 1014.4 0.0
15/12:00pm 30.7 29.7 15.5 39 9.4 E 15 22 8 12 1015.6 1014.9 0.0
15/11:30am 32.6 30.6 16.4 37 10.2 E 22 32 12 17 1015.8 1015.1 0.0
15/11:00am 31.7 30.6 17.2 42 9.2 ESE 19 32 10 17 1016.4 1015.7 0.0
15/10:30am 30.0 28.4 16.4 44 8.5 E 20 33 11 18 1016.7 1016.0 0.0
15/10:00am 30.6 29.3 17.3 45 8.5 E 20 32 11 17 1017.0 1016.3 0.0
15/09:30am 29.0 26.1 16.2 46 8.0 ESE 26 39 14 21 1017.1 1016.4 0.0
15/09:00am 28.7 27.0 17.2 49 7.3 ESE 22 32 12 17 1017.1 1016.4 0.0
15/08:30am 28.1 26.6 16.4 49 7.3 ESE 19 30 10 16 1017.0 1016.3 0.0
15/08:00am 27.4 26.9 17.0 53 6.5 ESE 15 26 8 14 1017.0 1016.3 0.0
15/07:30am 26.7 26.8 17.5 57 5.8 SE 13 22 7 12 1016.6 1015.9 0.0
15/07:00am 25.3 25.4 17.5 62 4.9 SE 13 22 7 12 1016.6 1015.9 0.0
15/06:30am 25.0 25.5 17.5 63 4.7 ESE 11 15 6 8 1016.4 1015.7 0.0
15/06:00am 24.9 25.1 17.6 64 4.6 SE 13 22 7 12 1015.9 1015.2 0.0
15/05:30am 24.8 25.1 17.8 65 4.4 ESE 13 24 7 13 1015.4 1014.7 0.0
15/05:00am 25.0 25.7 18.0 65 4.4 ESE 11 19 6 10 1015.1 1014.4 0.0
15/04:30am 25.1 24.7 18.1 65 4.4 ESE 17 26 9 14 1014.9 1014.2 0.0
15/04:00am 25.1 25.5 18.1 65 4.4 ESE 13 22 7 12 1014.7 1014.0 0.0
15/03:30am 25.3 26.6 18.5 66 4.3 SE 9 15 5 8 1014.8 1014.1 0.0
15/03:00am 25.7 27.2 18.9 66 4.4 ESE 9 15 5 8 1014.6 1013.9 0.0
15/02:30am 25.8 25.8 19.0 66 4.4 ESE 17 24 9 13 1014.6 1013.9 0.0
15/02:00am 26.0 27.3 19.2 66 4.4 ESE 11 17 6 9 1014.6 1013.9 0.0
15/01:30am 26.0 27.3 19.2 66 4.4 ESE 11 19 6 10 1014.7 1014.0 0.0
15/01:00am 26.2 27.4 19.1 65 4.6 ESE 11 20 6 11 1014.8 1014.1 0.0
15/12:30am 26.3 27.9 19.2 65 4.6 E 9 13 5 7 1015.0 1014.3 0.0
15/12:00am 26.3 28.6 19.4 66 4.5 ESE 6 9 3 5 1015.0 1014.3 0.0
 
Date/Time
EST
Temp
°C
App
Temp
°C
Dew
Point
°C
Rel
Hum
%
Delta-T
°C
Wind Press
QNH
hPa
Press
MSL
hPa
Rain since
9am
mm
Dir  Spd
km/h
Gust
km/h
Spd
kts
Gust
kts
14/11:30pm 26.2 27.9 19.3 65 4.5 E 9 13 5 7 1015.0 1014.3 0.0
14/11:00pm 26.1 25.8 19.2 65 4.5 E 19 28 10 15 1014.9 1014.2 0.0
14/10:30pm 26.4 26.1 19.5 66 4.5 E 20 33 11 18 1014.7 1014.0 0.0
14/10:00pm 26.4 26.4 19.8 67 4.3 E 19 26 10 14 1014.6 1013.9 0.0
14/09:30pm 26.9 26.0 19.8 65 4.6 E 24 41 13 22 1014.3 1013.6 0.0
14/09:00pm 27.3 28.0 20.4 66 4.5 E 17 26 9 14 1014.0 1013.4 0.0
14/08:30pm 27.7 26.6 20.3 64 4.9 E 26 33 14 18 1013.6 1013.0 0.0
14/08:00pm 28.4 26.7 19.9 60 5.6 E 28 41 15 22 1013.2 1012.6 0.0
14/07:30pm 29.1 27.1 20.0 58 6.0 E 30 44 16 24 1012.3 1011.7 0.0
14/07:17pm 29.4 27.7 19.7 56 6.4 E 28 46 15 25 1011.9 1011.3 0.0
14/07:00pm 30.0 30.1 20.0 55 6.6 ESE 19 33 10 18 1011.4 1010.8 0.0
14/06:30pm 31.0 30.0 19.7 51 7.5 ESE 24 33 13 18 1010.4 1009.7 0.0
14/06:00pm 31.9 29.9 19.2 47 8.3 E 28 41 15 22 1009.7 1009.0 0.0
14/05:30pm 33.3 32.0 19.0 42 9.4 E 24 37 13 20 1009.2 1008.5 0.0
14/05:00pm 34.7 33.5 18.3 38 10.7 E 22 32 12 17 1008.8 1008.1 0.0
14/04:30pm 35.5 34.0 16.8 33 12.0 E 20 30 11 16 1008.2 1007.5 0.0
14/04:00pm 36.5 35.1 16.6 30 12.8 E 19 32 10 17 1008.3 1007.6 0.0
14/03:30pm 36.6 36.6 16.2 29 13.0 E 11 24 6 13 1008.3 1007.6 0.0
14/03:00pm 36.6 35.6 15.7 29 13.3 E 15 26 8 14 1008.5 1007.8 0.0
14/02:30pm 36.7 35.8 15.8 29 13.3 E 15 28 8 15 1008.6 1007.9 0.0
14/02:00pm 36.0 35.2 16.2 31 12.6 E 15 28 8 15 1008.8 1008.1 0.0
14/01:30pm 35.9 35.1 17.1 32 12.1 E 17 28 9 15 1009.1 1008.4 0.0
14/01:00pm 35.7 35.0 17.4 33 11.9 ENE 17 26 9 14 1009.4 1008.7 0.0
14/12:30pm 35.0 34.5 17.7 36 11.2 ESE 17 28 9 15 1009.8 1009.1 0.0
14/12:00pm 34.5 34.1 18.1 37 10.7 E 17 30 9 16 1010.0 1009.3 0.0
14/11:30am 33.9 34.0 19.2 42 9.7 E 17 32 9 17 1010.2 1009.5 0.0
14/11:00am 33.6 33.9 19.7 44 9.2 ENE 17 32 9 17 1010.4 1009.7 0.0
14/10:30am 32.8 33.0 19.3 45 8.9 ESE 17 28 9 15 1010.6 1009.9 0.0
14/10:00am 32.1 32.7 18.7 45 8.8 E 13 28 7 15 1010.5 1009.8 0.0
14/09:30am 31.8 31.3 17.7 43 9.1 E 17 22 9 12 1010.5 1009.8 0.0
14/09:00am 30.8 31.1 16.0 40 9.3 ESE 9 17 5 9 1010.4 1009.7 -
14/08:30am 29.7 28.3 10.8 31 10.9 SSE 9 15 5 8 1010.3 1009.6 -
14/08:00am 28.3 26.8 9.1 30 10.7 S 7 11 4 6 1010.4 1009.7 -
14/07:30am 26.9 26.7 12.9 42 8.2 SSW 6 7 3 4 1010.3 1009.6 -
14/07:00am 24.9 27.7 18.8 69 3.9 SW 2 6 1 3 1009.9 1009.2 -
14/06:30am 23.3 27.8 21.6 90 1.1 CALM 0 4 0 2 1009.3 1008.6 -
14/06:00am 23.1 27.5 21.4 90 1.1 CALM 0 0 0 0 1008.7 1008.0 -
14/05:30am 23.2 27.6 21.3 89 1.3 CALM 0 0 0 0 1008.2 1007.5 -
14/05:00am 23.4 27.8 21.3 88 1.4 CALM 0 0 0 0 1007.8 1007.1 -
14/04:30am 23.4 27.6 20.9 86 1.6 CALM 0 0 0 0 1007.5 1006.8 -
14/04:00am 23.9 28.2 21.2 85 1.8 CALM 0 0 0 0 1007.2 1006.5 -
14/03:30am 24.1 28.3 21.8 87 1.5 N 2 4 1 2 1006.8 1006.1 -
14/03:00am 24.4 29.0 21.7 85 1.8 CALM 0 0 0 0 1006.7 1006.0 0.0
14/02:30am 24.4 28.6 20.9 81 2.3 CALM 0 0 0 0 1006.5 1005.8 -
14/02:00am 24.9 29.5 21.8 83 2.1 CALM 0 0 0 0 1006.6 1005.9 -
14/01:30am 25.1 28.8 21.4 80 2.5 ENE 4 7 2 4 1006.5 1005.8 -
14/01:00am 25.5 30.0 21.6 79 2.6 CALM 0 0 0 0 1006.5 1005.8 -
14/12:30am 26.0 30.6 21.7 77 2.9 CALM 0 0 0 0 1006.6 1005.9 -
14/12:00am 26.4 30.9 21.6 75 3.2 CALM 0 0 0 0 1006.8 1006.1 -
 
Date/Time
EST
Temp
°C
App
Temp
°C
Dew
Point
°C
Rel
Hum
%
Delta-T
°C
Wind Press
QNH
hPa
Press
MSL
hPa
Rain since
9am
mm
Dir  Spd
km/h
Gust
km/h
Spd
kts
Gust
kts
13/11:30pm 26.8 31.4 21.8 74 3.4 CALM 0 0 0 0 1006.7 1006.0 -
13/11:00pm 27.1 30.5 21.6 72 3.7 NE 6 7 3 4 1006.6 1005.9 -
13/10:30pm 27.4 29.5 21.7 71 3.8 NE 13 15 7 8 1006.5 1005.8 -
13/10:00pm 27.6 30.7 21.4 69 4.2 ENE 7 11 4 6 1006.7 1006.0 -
13/09:30pm 28.6 30.8 21.9 67 4.5 ESE 13 19 7 10 1006.8 1006.1 -
13/09:15pm 28.6 30.4 21.9 67 4.5 SSE 15 33 8 18 1006.8 1006.1 -
13/09:00pm 28.9 30.5 21.4 64 5.0 NE 15 22 8 12 1004.7 1004.1 0.0
13/08:30pm 29.5 30.7 20.6 58 5.9 NE 15 20 8 11 1004.3 1003.7 -
13/08:00pm 29.8 31.1 17.6 48 7.8 NNE 7 9 4 5 1004.1 1003.5 -
13/07:30pm 30.7 31.0 17.0 43 8.7 NE 11 19 6 10 1003.9 1003.3 -

Other Formats:

Comma delimited format used in spreadsheet applications
http://www.bom.gov.au/fwo/IDQ60801/IDQ60801.95543.axf

JavaScript Object Notation format (JSON) in row-major order
http://www.bom.gov.au/fwo/IDQ60801/IDQ60801.95543.json